Time;durP1;ratioP1;P1;durP2;ratioP2;P2;SDS_P1;SDS_P2;PMS_P1;PMS_P2;Temp;Humidity;BMP_temperature;BMP_pressure;BME280_temperature;BME280_humidity;BME280_pressure;Samples;Min_cycle;Max_cycle;Signal;HPM_P1;HPM_P2
2021/06/26 00:01:48;;;;;;;35.70;8.80;;;;;;;27.95;47.59;94975.00;5080786;28;20278;-74
2021/06/26 00:04:15;;;;;;;28.20;8.30;;;;;;;28.08;47.76;94985.56;5088865;28;20191;-72
2021/06/26 00:06:42;;;;;;;31.00;7.97;;;;;;;28.12;47.69;94984.44;5082762;28;20204;-75
2021/06/26 00:09:09;;;;;;;28.77;8.93;;;;;;;27.78;48.47;94977.38;5069689;28;20982;-74
2021/06/26 00:11:36;;;;;;;37.50;8.53;;;;;;;27.78;47.95;94972.00;5090044;28;20280;-71
2021/06/26 00:14:05;;;;;;;28.50;8.30;;;;;;;27.78;48.77;94982.78;5077583;28;20654;-74
2021/06/26 00:16:32;;;;;;;34.97;7.67;;;;;;;27.87;48.53;94981.38;5071758;28;20210;-74
2021/06/26 00:19:00;;;;;;;32.80;8.60;;;;;;;27.89;48.77;94989.88;5074755;28;20191;-69
2021/06/26 00:21:28;;;;;;;26.57;8.10;;;;;;;27.81;49.03;94992.81;5092094;28;20581;-72
2021/06/26 00:23:55;;;;;;;25.43;7.77;;;;;;;27.73;49.84;94994.66;5091073;28;20235;-71
2021/06/26 00:26:22;;;;;;;26.43;7.17;;;;;;;27.76;50.40;94998.50;5091704;28;20195;-69
2021/06/26 00:28:48;;;;;;;27.70;7.57;;;;;;;27.62;50.75;94995.59;5090802;28;20195;-71
2021/06/26 00:31:15;;;;;;;32.47;7.47;;;;;;;27.71;50.85;94996.91;5091519;28;20269;-75
2021/06/26 00:33:42;;;;;;;30.43;7.47;;;;;;;27.67;51.33;94998.78;5091257;28;20225;-74
2021/06/26 00:36:11;;;;;;;26.93;8.07;;;;;;;27.70;51.17;94998.03;5090933;28;20210;-75
2021/06/26 00:38:38;;;;;;;34.17;8.23;;;;;;;27.69;51.38;94991.13;5076551;28;20204;-73
2021/06/26 00:41:05;;;;;;;29.23;8.03;;;;;;;27.64;51.79;94996.81;5091100;28;20656;-73
2021/06/26 00:43:32;;;;;;;25.57;8.30;;;;;;;27.58;52.03;94984.00;5091060;28;20267;-74
2021/06/26 00:46:02;;;;;;;29.80;7.20;;;;;;;27.64;51.62;94990.63;5084131;28;20597;-73
2021/06/26 00:48:29;;;;;;;27.00;7.73;;;;;;;27.70;52.01;94991.91;5084218;28;20338;-71
2021/06/26 00:50:56;;;;;;;24.40;6.97;;;;;;;27.51;52.49;94983.88;5076035;28;20218;-73
2021/06/26 00:53:23;;;;;;;29.27;7.87;;;;;;;27.57;52.17;95001.28;5079122;28;20238;-72
2021/06/26 00:55:54;;;;;;;24.67;7.40;;;;;;;27.40;52.75;94972.16;5088477;28;20191;-72
2021/06/26 00:58:24;;;;;;;28.00;8.13;;;;;;;27.59;52.18;94990.94;5080922;28;20291;-73
2021/06/26 01:00:52;;;;;;;24.67;7.33;;;;;;;27.53;52.39;94987.00;5070113;28;20196;-74
2021/06/26 01:03:20;;;;;;;25.80;7.37;;;;;;;27.58;52.10;94978.59;5079981;28;20676;-75
2021/06/26 01:05:48;;;;;;;26.17;7.30;;;;;;;27.53;51.91;94976.22;5076235;28;20203;-75
2021/06/26 01:08:15;;;;;;;30.03;8.20;;;;;;;26.76;54.07;94968.31;5090836;28;20191;-72
2021/06/26 01:10:42;;;;;;;32.87;7.90;;;;;;;27.02;53.68;94965.72;5090075;28;20202;-69
2021/06/26 01:13:09;;;;;;;31.93;7.47;;;;;;;26.94;54.06;94964.03;5076587;28;20211;-74
2021/06/26 01:15:37;;;;;;;30.70;7.30;;;;;;;27.17;53.35;94955.22;5089872;28;20688;-72
2021/06/26 01:18:04;;;;;;;32.50;7.27;;;;;;;26.97;53.97;94944.50;5090125;28;20191;-71
2021/06/26 01:20:31;;;;;;;25.90;7.40;;;;;;;27.08;53.70;94954.69;5089900;28;20577;-72
2021/06/26 01:22:59;;;;;;;33.63;8.17;;;;;;;27.09;53.53;94956.22;5090501;28;20286;-71
2021/06/26 01:25:30;;;;;;;34.53;7.43;;;;;;;27.09;53.98;94961.59;5088206;28;20195;-72
2021/06/26 01:28:00;;;;;;;30.03;7.20;;;;;;;27.13;53.90;94967.81;5090486;28;20183;-73
2021/06/26 01:30:32;;;;;;;28.73;7.43;;;;;;;27.11;53.60;94968.19;5089394;28;20226;-71
2021/06/26 01:33:01;;;;;;;31.50;8.33;;;;;;;27.19;53.00;94966.41;5090356;28;20298;-70
2021/06/26 01:35:28;;;;;;;32.07;7.13;;;;;;;26.94;52.72;94950.59;5088536;28;20207;-72
2021/06/26 01:37:56;;;;;;;24.13;7.77;;;;;;;27.12;52.09;94963.56;5080336;28;20200;-73
2021/06/26 01:40:26;;;;;;;26.00;7.33;;;;;;;27.07;51.61;94974.63;5072271;28;20249;-72
2021/06/26 01:42:55;;;;;;;22.27;6.63;;;;;;;27.04;51.46;94976.91;5090601;28;20195;-71
2021/06/26 01:45:23;;;;;;;27.23;7.07;;;;;;;26.99;52.16;94966.44;5089274;28;20199;-73
2021/06/26 01:47:56;;;;;;;28.37;6.93;;;;;;;27.08;52.04;94976.19;5090327;28;20278;-73
2021/06/26 01:50:25;;;;;;;31.20;7.43;;;;;;;26.96;51.75;94979.81;5075322;28;20200;-71
2021/06/26 01:52:53;;;;;;;27.73;7.30;;;;;;;26.86;51.84;94981.16;5090197;28;20673;-72
2021/06/26 01:55:21;;;;;;;23.43;7.20;;;;;;;26.86;51.61;94975.03;5075509;28;20204;-71
2021/06/26 01:57:50;;;;;;;29.00;7.00;;;;;;;26.86;50.87;94986.56;5075576;28;20183;-71
2021/06/26 02:00:18;;;;;;;27.30;6.87;;;;;;;26.91;50.02;94970.16;5089526;28;20580;-70
2021/06/26 02:02:45;;;;;;;30.87;6.73;;;;;;;26.93;48.79;94981.31;5089957;28;20198;-73
2021/06/26 02:05:14;;;;;;;24.13;6.13;;;;;;;26.68;49.62;94974.69;5078735;28;20302;-72
2021/06/26 02:07:41;;;;;;;29.30;7.33;;;;;;;25.97;51.62;94991.19;5084136;28;20192;-75
2021/06/26 02:10:09;;;;;;;29.33;7.20;;;;;;;26.22;50.97;94994.44;5079096;28;20243;-72
2021/06/26 02:12:36;;;;;;;32.07;8.20;;;;;;;25.97;51.14;94998.44;5075889;28;20223;-72
2021/06/26 02:15:07;;;;;;;28.70;8.13;;;;;;;26.14;49.92;94990.03;5093638;28;20235;-73
2021/06/26 02:17:34;;;;;;;23.83;7.70;;;;;;;26.06;49.83;94988.31;5093725;28;20602;-71
2021/06/26 02:20:04;;;;;;;25.53;6.90;;;;;;;25.97;49.44;94968.91;5093921;28;20203;-75
2021/06/26 02:22:31;;;;;;;27.53;7.93;;;;;;;26.00;49.49;94997.75;5093959;28;20740;-71
2021/06/26 02:25:03;;;;;;;23.63;6.77;;;;;;;26.11;48.99;94985.38;5093490;28;20556;-72
2021/06/26 02:27:30;;;;;;;24.53;7.63;;;;;;;26.11;48.86;94998.81;5093958;28;20210;-73
2021/06/26 02:29:57;;;;;;;29.63;6.30;;;;;;;25.85;49.03;94995.88;5084985;28;20192;-72
2021/06/26 02:32:23;;;;;;;30.47;6.27;;;;;;;25.56;49.63;94977.56;5079548;28;20239;-72
2021/06/26 02:34:53;;;;;;;29.20;6.03;;;;;;;26.19;48.45;94995.13;5082760;28;20199;-75
2021/06/26 02:37:21;;;;;;;27.13;6.20;;;;;;;26.19;48.34;94994.34;5073222;28;20196;-70
2021/06/26 02:39:48;;;;;;;29.00;6.50;;;;;;;25.41;51.00;94981.03;5081919;28;20282;-72
2021/06/26 02:42:15;;;;;;;24.37;6.43;;;;;;;25.56;50.68;94988.28;5076212;28;20196;-74
2021/06/26 02:44:42;;;;;;;26.30;6.67;;;;;;;25.92;49.92;94974.56;5075851;28;20522;-70
2021/06/26 02:47:09;;;;;;;33.30;7.33;;;;;;;25.34;51.80;94975.44;5083368;28;20492;-70
2021/06/26 02:49:36;;;;;;;33.17;6.93;;;;;;;25.45;51.44;94976.53;5069754;28;20206;-70
2021/06/26 02:52:05;;;;;;;25.50;6.90;;;;;;;25.78;50.59;94974.25;5078052;28;20630;-70
2021/06/26 02:54:33;;;;;;;27.60;7.63;;;;;;;25.79;50.75;94967.75;5087623;28;20191;-72
2021/06/26 02:57:00;;;;;;;32.20;7.10;;;;;;;26.14;50.09;94976.63;5085790;28;20578;-74
2021/06/26 02:59:27;;;;;;;36.03;7.80;;;;;;;26.12;50.11;94967.34;5076327;28;20253;-73
2021/06/26 03:01:54;;;;;;;27.80;8.07;;;;;;;26.27;50.00;94963.84;5076047;28;20661;-75
2021/06/26 03:04:21;;;;;;;23.73;7.33;;;;;;;26.32;49.66;94969.69;5082060;28;20207;-71
2021/06/26 03:06:48;;;;;;;26.83;7.17;;;;;;;26.37;49.97;94966.72;5089418;28;20244;-73
2021/06/26 03:09:14;;;;;;;30.63;7.03;;;;;;;26.22;50.01;94962.22;5092311;28;20206;-72
2021/06/26 03:11:41;;;;;;;27.90;7.00;;;;;;;26.42;49.79;94955.69;5092826;28;20204;-74
2021/06/26 03:14:08;;;;;;;24.27;7.30;;;;;;;26.37;49.58;94960.59;5092468;28;20231;-73
2021/06/26 03:16:35;;;;;;;34.67;8.70;;;;;;;26.58;49.46;94959.09;5089429;28;20195;-73
2021/06/26 03:19:03;;;;;;;34.83;7.80;;;;;;;26.56;49.18;94956.00;5091895;28;20616;-73
2021/06/26 03:21:30;;;;;;;32.13;8.47;;;;;;;26.03;50.60;94940.66;5092274;28;20268;-72
2021/06/26 03:23:57;;;;;;;28.83;6.93;;;;;;;25.55;52.12;94965.25;5091828;28;20191;-71
2021/06/26 03:26:24;;;;;;;33.93;8.10;;;;;;;25.39;52.80;94959.91;5089539;28;20248;-71
2021/06/26 03:28:51;;;;;;;36.57;8.03;;;;;;;25.83;51.57;94965.91;5083273;28;20195;-70
2021/06/26 03:31:18;;;;;;;31.13;7.50;;;;;;;25.67;51.95;94967.84;5088691;28;20650;-71
2021/06/26 03:33:46;;;;;;;32.47;6.87;;;;;;;26.01;51.50;94967.09;5083764;28;20307;-71
2021/06/26 03:36:14;;;;;;;31.13;8.10;;;;;;;26.09;51.04;94974.22;5079733;28;20199;-70
2021/06/26 03:38:41;;;;;;;29.67;7.13;;;;;;;26.23;50.58;94979.09;5091902;28;20202;-69
2021/06/26 03:41:08;;;;;;;32.13;7.60;;;;;;;26.14;51.56;94975.81;5091301;28;20543;-69
2021/06/26 03:43:36;;;;;;;33.60;7.67;;;;;;;25.97;51.84;94979.66;5091162;28;20736;-71
2021/06/26 03:46:04;;;;;;;36.73;8.17;;;;;;;26.30;51.16;94974.66;5091097;28;20210;-71
2021/06/26 03:48:31;;;;;;;29.87;8.20;;;;;;;25.97;52.15;94982.34;5077850;28;20192;-71
2021/06/26 03:50:59;;;;;;;23.60;7.53;;;;;;;26.18;51.54;94985.53;5084929;28;20705;-72
2021/06/26 03:53:27;;;;;;;33.20;8.20;;;;;;;26.31;51.35;94981.59;5071253;28;20238;-71
2021/06/26 03:55:54;;;;;;;29.87;8.43;;;;;;;26.45;51.79;95000.69;5088940;28;20221;-71
2021/06/26 03:58:24;;;;;;;35.17;8.77;;;;;;;26.33;52.70;95008.84;5091127;28;20699;-69
2021/06/26 04:00:51;;;;;;;36.20;8.30;;;;;;;26.43;52.58;95013.69;5087835;28;20994;-71
2021/06/26 04:03:19;;;;;;;32.77;9.27;;;;;;;26.18;53.61;95003.53;5085007;28;20459;-72
2021/06/26 04:05:46;;;;;;;29.57;8.90;;;;;;;26.15;53.95;95026.50;5086067;28;20220;-69
2021/06/26 04:08:13;;;;;;;29.40;8.77;;;;;;;26.15;54.61;95028.44;5084573;28;20195;-73
2021/06/26 04:10:41;;;;;;;29.40;8.50;;;;;;;25.96;54.88;95029.13;5090834;28;20194;-72
2021/06/26 04:13:08;;;;;;;38.43;9.20;;;;;;;26.15;54.52;95018.44;5082039;28;20211;-70
2021/06/26 04:15:36;;;;;;;31.27;8.83;;;;;;;26.15;54.40;95031.88;5086288;28;20198;-73
2021/06/26 04:18:04;;;;;;;33.70;8.43;;;;;;;26.13;54.52;95018.00;5088810;28;20207;-71
2021/06/26 04:20:32;;;;;;;30.77;8.20;;;;;;;25.97;55.68;95025.28;5090082;28;20657;-75
2021/06/26 04:23:00;;;;;;;29.07;8.60;;;;;;;25.80;56.04;95031.06;5090843;28;20187;-74
2021/06/26 04:25:28;;;;;;;26.47;7.53;;;;;;;26.09;55.24;95029.81;5089813;28;20290;-73
2021/06/26 04:27:55;;;;;;;38.03;9.70;;;;;;;25.52;56.63;95027.66;5090462;28;20211;-70
2021/06/26 04:30:22;;;;;;;27.93;8.33;;;;;;;26.01;55.19;95032.31;5090319;28;20583;-69
2021/06/26 04:32:49;;;;;;;28.47;8.20;;;;;;;25.99;55.65;95033.78;5090933;28;20264;-70
2021/06/26 04:35:20;;;;;;;33.87;8.73;;;;;;;25.46;56.86;95032.50;5084461;28;20207;-70
2021/06/26 04:37:47;;;;;;;28.10;8.80;;;;;;;25.20;57.87;95016.09;5079457;28;20722;-70
2021/06/26 04:40:16;;;;;;;36.90;9.57;;;;;;;26.06;55.64;95033.97;5083159;28;20191;-72
2021/06/26 04:42:45;;;;;;;28.47;8.30;;;;;;;26.11;55.75;95025.66;5075645;28;20202;-73
2021/06/26 04:45:13;;;;;;;34.20;8.67;;;;;;;26.32;54.77;95030.72;5077705;28;20192;-70
2021/06/26 04:47:42;;;;;;;33.80;8.07;;;;;;;26.45;54.42;95029.47;5090218;28;20198;-70
2021/06/26 04:50:10;;;;;;;26.23;8.37;;;;;;;26.26;54.85;95016.78;5082682;28;20278;-71
2021/06/26 04:52:40;;;;;;;32.33;8.23;;;;;;;26.50;53.99;95024.59;5088826;28;20210;-72
2021/06/26 04:55:08;;;;;;;27.87;8.73;;;;;;;26.48;53.85;95024.16;5089608;28;20203;-76
2021/06/26 04:57:35;;;;;;;29.20;7.83;;;;;;;26.65;54.02;95026.44;5088489;28;20689;-74
2021/06/26 05:00:05;;;;;;;35.53;8.83;;;;;;;26.66;53.55;95032.59;5087197;28;20712;-74
2021/06/26 05:02:32;;;;;;;31.03;8.53;;;;;;;26.59;52.69;95030.53;5088504;28;20649;-80
2021/06/26 05:04:59;;;;;;;26.17;8.10;;;;;;;26.48;53.50;95034.91;5091076;28;20233;-70
2021/06/26 05:07:26;;;;;;;33.60;8.83;;;;;;;26.74;53.43;95031.63;5093365;28;20210;-73
2021/06/26 05:09:53;;;;;;;31.73;7.67;;;;;;;26.68;53.41;95033.81;5089486;28;20215;-74
2021/06/26 05:12:20;;;;;;;31.10;8.93;;;;;;;26.95;52.12;95016.69;5085133;28;20194;-73
2021/06/26 05:14:47;;;;;;;31.80;9.27;;;;;;;26.59;52.87;95019.78;5085495;28;20772;-70
2021/06/26 05:17:14;;;;;;;35.00;9.43;;;;;;;27.06;51.87;95021.50;5102764;28;20222;-70
2021/06/26 05:19:41;;;;;;;31.63;9.00;;;;;;;27.10;52.04;95022.34;5101073;28;20207;-71
2021/06/26 05:22:08;;;;;;;36.40;10.33;;;;;;;26.62;53.04;95019.06;5096926;28;20286;-70
2021/06/26 05:24:35;;;;;;;34.47;8.27;;;;;;;27.02;51.74;95024.88;5090650;28;20191;-77
2021/06/26 05:27:03;;;;;;;36.97;7.77;;;;;;;27.11;51.54;95029.28;5091239;28;20202;-76
2021/06/26 05:29:30;;;;;;;32.23;8.50;;;;;;;27.17;51.19;95025.16;5070432;28;20192;-76
2021/06/26 05:31:57;;;;;;;33.77;7.70;;;;;;;27.38;50.31;95033.63;5083166;28;20223;-77
2021/06/26 05:34:23;;;;;;;39.50;8.50;;;;;;;27.20;52.20;95037.91;5086389;28;20302;-74
2021/06/26 05:36:50;;;;;;;33.93;8.63;;;;;;;27.28;51.51;95045.72;5074910;28;20190;-76
2021/06/26 05:39:17;;;;;;;30.90;7.40;;;;;;;27.33;50.44;95042.00;5082830;28;20561;-72
2021/06/26 05:41:48;;;;;;;29.13;7.53;;;;;;;27.32;50.21;95040.44;5067878;28;20536;-71
2021/06/26 05:44:15;;;;;;;32.17;7.23;;;;;;;27.55;49.65;95035.88;5071700;28;20195;-77
2021/06/26 05:46:42;;;;;;;91.97;65.53;;;;;;;27.69;50.19;95047.66;5070340;28;20620;-72
2021/06/26 05:49:09;;;;;;;36.67;14.80;;;;;;;27.88;48.84;95036.78;5071069;28;20211;-71
2021/06/26 05:51:36;;;;;;;31.43;14.77;;;;;;;27.92;49.79;95031.47;5070839;28;20564;-74
2021/06/26 05:54:03;;;;;;;31.73;8.43;;;;;;;27.71;48.99;95033.81;5074018;28;20226;-71
2021/06/26 05:56:30;;;;;;;51.57;29.10;;;;;;;27.71;48.99;95033.81;5071169;28;20668;-69
2021/06/26 05:58:58;;;;;;;40.93;18.03;;;;;;;27.81;48.57;95031.31;5075720;28;20688;-77
2021/06/26 06:01:25;;;;;;;97.30;66.93;;;;;;;28.03;49.40;95029.72;5071940;28;20668;-72
2021/06/26 06:03:53;;;;;;;27.67;9.00;;;;;;;28.02;48.49;95036.28;5074130;28;20680;-75
2021/06/26 06:06:20;;;;;;;30.30;8.83;;;;;;;28.00;47.75;95025.09;5083056;28;20187;-73
2021/06/26 06:08:46;;;;;;;35.43;11.57;;;;;;;28.11;47.11;95020.63;5078095;28;20203;-69
2021/06/26 06:11:13;;;;;;;37.00;8.47;;;;;;;28.18;47.14;95020.72;5072874;28;20280;-74
2021/06/26 06:13:40;;;;;;;42.73;21.20;;;;;;;28.17;48.32;95027.28;5079020;28;20213;-70
2021/06/26 06:16:07;;;;;;;61.97;39.83;;;;;;;28.39;47.34;95033.72;5077305;28;20287;-69
2021/06/26 06:18:34;;;;;;;42.43;14.83;;;;;;;28.39;44.78;95034.50;5072496;28;20195;-66
2021/06/26 06:21:01;;;;;;;29.80;9.80;;;;;;;28.25;45.79;95034.31;5077154;28;20199;-73
2021/06/26 06:23:28;;;;;;;38.63;9.30;;;;;;;27.90;46.15;95033.75;5072512;28;20210;-73
2021/06/26 06:25:56;;;;;;;30.53;9.27;;;;;;;28.05;47.13;95040.19;5077104;28;20565;-72
2021/06/26 06:28:23;;;;;;;409.10;336.47;;;;;;;28.36;44.90;95029.84;5082234;28;20195;-70
2021/06/26 06:30:50;;;;;;;123.73;99.47;;;;;;;28.54;44.67;95030.13;5075802;28;20699;-69
2021/06/26 06:33:17;;;;;;;31.33;10.27;;;;;;;28.67;44.20;95024.13;5075287;28;20192;-72
2021/06/26 06:35:44;;;;;;;30.70;11.00;;;;;;;28.82;44.13;95031.25;5078373;28;20195;-68
2021/06/26 06:38:13;;;;;;;35.53;9.30;;;;;;;28.40;45.11;95025.28;5081541;28;20187;-70
2021/06/26 06:40:40;;;;;;;34.37;7.80;;;;;;;28.78;43.59;95022.31;5079524;28;20196;-69
2021/06/26 06:43:07;;;;;;;30.37;7.37;;;;;;;28.77;43.86;95010.00;5075031;28;20210;-70
2021/06/26 06:45:34;;;;;;;33.73;8.57;;;;;;;29.06;43.44;95010.31;5081166;28;20223;-71
2021/06/26 06:48:02;;;;;;;32.13;9.47;;;;;;;29.13;42.71;95011.19;5069886;28;20204;-68
2021/06/26 06:50:29;;;;;;;33.23;7.70;;;;;;;28.84;43.60;95010.06;5079777;28;20200;-69
2021/06/26 06:53:01;;;;;;;31.03;11.27;;;;;;;29.27;42.67;95013.25;5072936;28;20192;-65
2021/06/26 06:55:28;;;;;;;27.97;8.87;;;;;;;29.14;42.49;95010.06;5076649;28;20721;-70
2021/06/26 06:57:56;;;;;;;33.20;7.67;;;;;;;29.34;42.27;95008.69;5070976;28;20196;-69
2021/06/26 07:00:23;;;;;;;37.63;7.90;;;;;;;29.45;41.70;95008.81;5076129;28;20307;-68
2021/06/26 07:02:50;;;;;;;38.33;7.30;;;;;;;29.51;40.67;95012.69;5082080;28;20195;-67
2021/06/26 07:05:17;;;;;;;35.87;14.40;;;;;;;29.62;41.20;95008.16;5075506;28;20204;-68
2021/06/26 07:07:44;;;;;;;63.93;35.00;;;;;;;29.73;40.68;95004.44;5075704;28;20633;-67
2021/06/26 07:10:11;;;;;;;29.73;8.13;;;;;;;29.87;38.49;95001.09;5087894;28;20226;-69
2021/06/26 07:12:39;;;;;;;29.70;8.07;;;;;;;29.93;37.72;94997.66;5071301;28;20227;-70
2021/06/26 07:15:07;;;;;;;31.67;7.53;;;;;;;30.07;37.33;94996.19;5070858;28;20306;-69
2021/06/26 07:17:34;;;;;;;31.97;7.33;;;;;;;30.03;36.87;94984.59;5086661;28;20567;-67
2021/06/26 07:20:01;;;;;;;27.40;6.33;;;;;;;30.25;36.50;94987.06;5092198;28;20227;-69
2021/06/26 07:22:28;;;;;;;31.20;6.07;;;;;;;30.09;37.10;94983.84;5090964;28;20228;-69
2021/06/26 07:24:55;;;;;;;26.40;6.53;;;;;;;30.19;36.67;94993.97;5090847;28;20205;-69
2021/06/26 07:27:23;;;;;;;30.97;5.37;;;;;;;30.23;36.23;94992.06;5091892;28;20603;-69
2021/06/26 07:29:49;;;;;;;27.00;6.47;;;;;;;30.07;36.36;94991.59;5090384;28;20270;-69
2021/06/26 07:32:16;;;;;;;25.43;7.43;;;;;;;30.26;37.90;95004.06;5090583;28;20238;-68
2021/06/26 07:34:43;;;;;;;24.43;6.43;;;;;;;30.21;36.91;95001.69;5091448;28;20322;-70
2021/06/26 07:37:10;;;;;;;33.13;8.43;;;;;;;30.39;36.54;94997.97;5080914;28;20198;-67
2021/06/26 07:39:37;;;;;;;69.33;44.00;;;;;;;30.54;38.24;95004.22;5089526;28;20736;-67
2021/06/26 07:42:05;;;;;;;31.13;8.07;;;;;;;30.53;36.45;95002.69;5090415;28;20191;-67
2021/06/26 07:44:32;;;;;;;30.97;7.03;;;;;;;30.53;36.06;95002.69;5089505;28;20195;-68
2021/06/26 07:46:59;;;;;;;34.27;6.67;;;;;;;30.67;37.02;95000.81;5078930;28;20720;-69
2021/06/26 07:49:26;;;;;;;21.10;6.83;;;;;;;30.76;35.84;95001.25;5077377;28;20192;-69
2021/06/26 07:51:53;;;;;;;29.10;6.53;;;;;;;30.78;34.67;95003.56;5077777;28;20200;-69
2021/06/26 07:54:38;;;;;;;30.47;6.57;;;;;;;30.89;35.17;94997.03;5083411;28;20211;-67
2021/06/26 07:57:05;;;;;;;33.10;6.37;;;;;;;30.78;34.99;95004.31;5085581;28;20623;-68
2021/06/26 07:59:32;;;;;;;21.17;5.83;;;;;;;30.88;34.28;95002.09;5080261;28;20187;-71
2021/06/26 08:01:59;;;;;;;27.20;5.37;;;;;;;30.82;34.17;95002.44;5074550;28;20227;-66
2021/06/26 08:04:26;;;;;;;27.63;5.90;;;;;;;31.01;34.91;95000.56;5080762;28;20285;-69
2021/06/26 08:06:53;;;;;;;29.70;5.87;;;;;;;31.07;33.21;94999.03;5073398;28;20672;-68
2021/06/26 08:09:20;;;;;;;33.80;15.50;;;;;;;31.12;34.01;94993.25;5088649;28;20214;-64
2021/06/26 08:11:47;;;;;;;45.37;22.93;;;;;;;31.29;33.36;94989.81;5084372;28;20210;-66
2021/06/26 08:14:14;;;;;;;83.93;74.30;;;;;;;31.40;34.10;94990.63;5087385;28;20231;-66
2021/06/26 08:16:41;;;;;;;30.50;7.00;;;;;;;31.48;34.70;94992.16;5078710;28;20191;-67
2021/06/26 08:19:08;;;;;;;31.60;6.00;;;;;;;31.38;33.18;94999.16;5080383;28;20672;-66
2021/06/26 08:21:35;;;;;;;28.27;6.57;;;;;;;31.43;32.95;94984.44;5083755;28;20198;-67
2021/06/26 08:24:02;;;;;;;35.60;6.47;;;;;;;31.41;33.75;94994.88;5084145;28;20185;-67
2021/06/26 08:26:29;;;;;;;27.70;5.47;;;;;;;31.56;33.47;94993.75;5088686;28;20602;-68
2021/06/26 08:28:55;;;;;;;32.13;5.23;;;;;;;31.29;31.97;94990.59;5086695;28;20191;-69
2021/06/26 08:31:22;;;;;;;38.23;6.57;;;;;;;31.65;33.22;94994.13;5088392;28;20231;-65
2021/06/26 08:33:51;;;;;;;20.07;5.57;;;;;;;31.73;33.06;94987.56;5076895;28;20188;-67
2021/06/26 08:36:18;;;;;;;26.37;5.50;;;;;;;32.23;32.06;94988.28;5083964;28;20203;-66
2021/06/26 08:38:44;;;;;;;26.63;5.70;;;;;;;32.32;31.63;94991.38;5074016;28;20191;-70
2021/06/26 08:41:12;;;;;;;29.43;5.50;;;;;;;32.15;31.87;94982.13;5088326;28;20681;-69
2021/06/26 08:43:42;;;;;;;29.67;6.03;;;;;;;31.85;31.70;94987.16;5073932;28;20200;-70
2021/06/26 08:46:09;;;;;;;27.90;5.63;;;;;;;32.08;31.86;94984.09;5080169;28;20200;-67
2021/06/26 08:48:38;;;;;;;24.90;5.07;;;;;;;32.30;31.92;94983.63;5082088;28;20670;-67
2021/06/26 08:51:05;;;;;;;29.20;5.93;;;;;;;32.33;30.72;94977.44;5079946;28;20622;-66
2021/06/26 08:53:34;;;;;;;28.63;5.27;;;;;;;32.55;30.75;94978.19;5068225;28;20198;-64
2021/06/26 08:56:01;;;;;;;29.37;5.23;;;;;;;32.26;30.26;94977.44;5072839;28;20214;-67
2021/06/26 08:58:28;;;;;;;27.27;5.30;;;;;;;31.91;29.15;94976.72;5087869;28;20250;-71
2021/06/26 09:00:55;;;;;;;30.17;5.80;;;;;;;32.25;30.00;94975.91;5083227;28;20206;-68
2021/06/26 09:03:23;;;;;;;37.30;6.33;;;;;;;32.19;30.07;94974.75;5068509;28;20207;-68
2021/06/26 09:05:51;;;;;;;22.23;5.33;;;;;;;32.21;29.16;94975.13;5081013;28;20645;-69
2021/06/26 09:08:20;;;;;;;28.50;6.07;;;;;;;31.58;28.04;94977.88;5077762;28;20293;-68
2021/06/26 09:10:49;;;;;;;58.37;34.67;;;;;;;32.17;28.60;94968.94;5074798;28;20639;-69
2021/06/26 09:13:26;;;;;;;25.90;5.30;;;;;;;32.44;29.03;94961.16;5079295;28;20207;-67
2021/06/26 09:16:13;;;;;;;24.53;4.70;;;;;;;32.44;28.13;94953.81;5068772;28;20231;-67
2021/06/26 09:18:41;;;;;;;22.07;5.07;;;;;;;32.27;28.88;94968.16;5080406;28;20215;-70
2021/06/26 09:21:37;;;;;;;19.13;4.53;;;;;;;31.68;28.86;94958.13;5081981;28;20187;-69
2021/06/26 09:24:09;;;;;;;25.40;4.60;;;;;;;31.85;28.74;94947.28;5076562;28;20673;-70
2021/06/26 09:26:57;;;;;;;33.53;5.63;;;;;;;31.73;28.84;94946.91;5086168;28;20285;-71
2021/06/26 09:29:25;;;;;;;29.67;5.10;;;;;;;32.45;29.77;94946.41;5089314;28;20238;-73
2021/06/26 09:31:57;;;;;;;30.57;4.67;;;;;;;31.99;28.63;94946.50;5089378;28;20227;-68
2021/06/26 09:34:45;;;;;;;34.47;16.47;;;;;;;32.53;28.16;94943.31;5086648;28;20207;-73
2021/06/26 09:37:24;;;;;;;25.90;5.27;;;;;;;31.81;28.51;94945.72;5077364;28;20200;-72
2021/06/26 09:39:53;;;;;;;31.47;5.00;;;;;;;32.19;28.18;94939.50;5076400;28;20993;-73
2021/06/26 09:42:22;;;;;;;27.83;4.93;;;;;;;32.70;29.08;94931.59;5073705;28;20198;-73
2021/06/26 09:44:52;;;;;;;27.10;5.20;;;;;;;32.66;28.61;94925.41;5077915;28;20289;-71
2021/06/26 09:47:43;;;;;;;31.07;5.60;;;;;;;33.05;28.08;94929.88;5093337;28;20195;-73
2021/06/26 09:50:23;;;;;;;27.33;5.30;;;;;;;33.31;27.52;94926.59;5075195;28;20200;-73
2021/06/26 09:52:56;;;;;;;27.90;5.20;;;;;;;33.24;27.90;94922.00;5076606;28;20188;-73
2021/06/26 09:55:24;;;;;;;24.60;5.13;;;;;;;32.58;27.66;94921.19;5069807;28;20231;-73
2021/06/26 09:57:54;;;;;;;56.90;41.40;;;;;;;33.23;29.24;94919.69;5071836;28;20218;-72
2021/06/26 10:00:23;;;;;;;27.07;5.07;;;;;;;33.21;27.25;94916.59;5068960;28;20200;-71
2021/06/26 10:02:51;;;;;;;22.17;4.90;;;;;;;32.40;27.31;94923.16;5073436;28;20575;-73
2021/06/26 10:05:18;;;;;;;36.70;5.93;;;;;;;32.85;27.45;94907.09;5069226;28;20196;-71
2021/06/26 10:07:48;;;;;;;25.33;5.53;;;;;;;32.57;27.50;94916.91;5085952;28;20195;-70
2021/06/26 10:10:20;;;;;;;35.17;5.77;;;;;;;33.11;27.25;94912.00;5088430;28;20910;-68
2021/06/26 10:12:48;;;;;;;28.83;5.33;;;;;;;33.15;26.50;94910.03;5089020;28;20199;-73
2021/06/26 10:15:16;;;;;;;34.13;5.67;;;;;;;33.26;26.44;94906.06;5086828;28;20276;-71
2021/06/26 10:17:44;;;;;;;25.50;4.83;;;;;;;33.68;27.51;94908.47;5088670;28;20210;-73
2021/06/26 10:20:14;;;;;;;31.27;5.57;;;;;;;33.91;27.42;94905.13;5089131;28;20772;-72
2021/06/26 10:22:55;;;;;;;28.97;5.40;;;;;;;34.24;26.81;94907.16;5075543;28;20201;-74
2021/06/26 10:25:27;;;;;;;26.10;5.30;;;;;;;33.56;26.50;94902.75;5088980;28;20653;-73
2021/06/26 10:28:08;;;;;;;24.73;4.97;;;;;;;33.48;26.67;94898.56;5089024;28;20237;-72
2021/06/26 10:30:36;;;;;;;28.03;5.33;;;;;;;33.73;27.67;94896.38;5088926;28;20310;-70
2021/06/26 10:33:06;;;;;;;27.53;5.13;;;;;;;33.87;25.83;94896.22;5089615;28;20696;-73
2021/06/26 10:35:35;;;;;;;27.97;5.30;;;;;;;34.00;25.05;94901.97;5092229;28;20222;-70
2021/06/26 10:38:02;;;;;;;29.80;5.30;;;;;;;34.42;26.82;94891.38;5082155;28;20187;-74
2021/06/26 10:40:47;;;;;;;24.97;5.20;;;;;;;34.64;26.64;94892.69;5090020;28;20203;-75
2021/06/26 10:43:20;;;;;;;24.63;4.70;;;;;;;34.95;26.08;94896.19;5092389;28;20248;-73
2021/06/26 10:46:08;;;;;;;29.80;5.27;;;;;;;35.15;25.26;94893.56;5071371;28;20692;-73
2021/06/26 10:48:37;;;;;;;33.40;5.20;;;;;;;34.89;24.23;94886.88;5071802;28;20273;-74
2021/06/26 10:51:09;;;;;;;22.27;5.13;;;;;;;34.73;22.93;94889.44;5072353;28;20687;-74
2021/06/26 10:53:38;;;;;;;32.10;5.07;;;;;;;34.59;23.04;94884.22;5085614;28;20278;-74
2021/06/26 10:56:12;;;;;;;18.17;4.43;;;;;;;34.29;23.70;94884.94;5092028;28;20229;-74
2021/06/26 10:58:44;;;;;;;26.03;4.37;;;;;;;35.08;24.20;94880.81;5092550;28;20195;-75
2021/06/26 11:01:20;;;;;;;32.20;5.23;;;;;;;35.01;23.25;94869.25;5092294;28;20202;-73
2021/06/26 11:03:51;;;;;;;24.53;4.87;;;;;;;35.39;23.77;94870.59;5090729;28;20243;-72
2021/06/26 11:06:29;;;;;;;22.63;4.50;;;;;;;34.20;23.96;94868.31;5078304;28;20195;-73
2021/06/26 11:09:02;;;;;;;31.97;5.43;;;;;;;34.39;23.44;94866.94;5078285;28;20274;-74
2021/06/26 11:11:44;;;;;;;21.83;4.20;;;;;;;34.81;25.25;94868.34;5079887;28;20199;-75
2021/06/26 11:14:16;;;;;;;26.03;4.70;;;;;;;34.93;22.62;94859.63;5092086;28;20206;-75
2021/06/26 11:16:50;;;;;;;24.47;4.97;;;;;;;35.15;23.07;94861.63;5092371;28;20763;-73
2021/06/26 11:19:19;;;;;;;30.20;4.50;;;;;;;35.41;23.87;94863.56;5090999;28;20199;-71
2021/06/26 11:21:56;;;;;;;30.97;5.17;;;;;;;34.96;21.72;94858.84;5091365;28;20203;-73
2021/06/26 11:24:44;;;;;;;22.00;4.07;;;;;;;34.93;22.42;94843.31;5091621;28;20278;-71
2021/06/26 11:27:17;;;;;;;23.97;4.70;;;;;;;35.26;23.31;94850.56;5092280;28;20740;-74
2021/06/26 11:29:47;;;;;;;17.47;4.57;;;;;;;35.50;22.35;94849.41;5091984;28;20249;-72
2021/06/26 11:32:20;;;;;;;26.37;4.80;;;;;;;35.60;23.12;94837.56;5092088;28;20227;-74